Warning: Javascript must be enabled to use all the features on this page!


Page Loading - Please Wait...

Click to hideNews Bulletins
  • Have your voice heard. Have a few minutes? We're surveying users about their experience with Water Data for the Nation (WDFN). Please take a few minutes to complete our online survey.
  • See the Water Data for the Nation Blog for the latest news and updates.

Peak Streamflow for the Nation

USGS 08123800 Beals Ck nr Westbrook, TX

Mitchell County, Texas
Hydrologic Unit Code 12080007
Latitude  32°11'57", Longitude 101°00'49" NAD27
Drainage area 9,802  square miles
Contributing drainage area 1,988  square miles
Gage datum 2,048.74 feet above NGVD29
Output formats
Table
Graph
Tab-separated file
peakfq (watstore) format
Reselect output format
Water
Year
Date Gage
Height
(feet)
Stream-
flow
(cfs)
1959 1959-07-18 12.08 2,540
1960 1959-10-03 20.05 7,100
1961 1961-05-19 21.65 8,780
1962 1962-09-07 19.22 6,270
1963 1963-05-22 10.62 1,820
1964 1964-09-24 8.26 1,080
1965 1965-05-16 15.55 3,850
1966 1966-04-25 19.00 5,990
1967 1967-06-11 9.41 1,370
1968 1968-05-10 19.06 6,240
1969 1969-05-05 15.96 4,050
1970 1970-09-15 5.52 383
1971 1971-09-24 13.04 2,720
1972 1972-09-03 15.53 2,500
1973 1973-03-10 18.21 3,380
1974 1974-09-19 14.60 2,220
1975 1975-05-24 17.31 3,130
1976 1976-07-05 11.10 1,370
1977 1977-06-26 7.01 588
1978 1978-09-23 6.30 454
1979 1979-07-20 14.81 2,110
1980 1980-09-28 21.94 7,690
1981 1981-04-23 9.86 1,060
1982 1982-06-20 11.28 1,340
1983 1983-01-22 3.62 74.0
1984 1983-10-20 9.56 1,010
1985 1985-09-21 7.58 669
1986 1986-06-03 10.46 1,680
1987 1986-10-05 21.61 7,070
1988 1988-09-20 8.04 637
1989 1989-06-11 11.20 1,220
1990 1990-03-11 8.37 736
1991 1991-06-04 9.11 927
1992 1992-05-26 14.94 2,250
1993 1993-04-29 8.66 849
1994 1994-05-11 20.62 5,550
1995 1995-04-04 10.55 1,190
1996 1996-08-24 11.95 1,490
1997 1997-02-21 11.37 1,360
1998 1998-08-19 11.25 1,330
1999 1999-05-29 7.59 670
2000 2000-03-23 23.70 13,000
2001 2001-02-28 4.49 182
2002 2001-11-16 14.21 2,060
2003 2003-06-05 19.25 4,120
2004 2004-03-05 14.05 1,580
2005 2004-11-17 20.38 5,000
2006 2006-09-05 15.85 2,370
2007 2007-08-19 14.36 1,700
2008 2008-08-18 10.95 910
2009 2009-04-17 9.67 565
2010 2010-09-26 10.10 1,000
2011 2011-08-14 4.63 203
2012 2012-09-28 22.72 9,340
2013 2013-06-17 8.36 652
2014 2013-10-14 10.30 1,010
2015 2015-07-09 7.49 538
2016 2015-10-22 17.11 3,010
2017 2017-05-20 18.70 3,450
2018 2018-08-13 18.92 4,110
2019 2018-10-10 20.49 4,880
2020 2020-09-09 17.72 2,690
2021 2021-07-04 15.51 1,830
2022 2022-04-25 8.41 545